Time;durP1;ratioP1;P1;durP2;ratioP2;P2;SDS_P1;SDS_P2;PMS_P1;PMS_P2;Temp;Humidity;BMP_temperature;BMP_pressure;BME280_temperature;BME280_humidity;BME280_pressure;Samples;Min_cycle;Max_cycle;Signal;HPM_P1;HPM_P2
2023/05/06 00:02:06;;;;;;;31.50;18.15;;;13.60;99.90;;;;;;5098315;28;20028;-70
2023/05/06 00:04:32;;;;;;;33.40;18.90;;;13.70;99.90;;;;;;5086124;28;20039;-68
2023/05/06 00:06:57;;;;;;;33.03;19.00;;;13.70;99.90;;;;;;5086162;28;20109;-69
2023/05/06 00:09:23;;;;;;;30.02;18.02;;;13.70;99.90;;;;;;5086101;28;20065;-69
2023/05/06 00:11:49;;;;;;;36.20;18.25;;;13.80;99.90;;;;;;5087988;28;20798;-69
2023/05/06 00:14:15;;;;;;;34.90;19.88;;;13.80;99.90;;;;;;5088540;28;20086;-68
2023/05/06 00:16:40;;;;;;;36.85;18.90;;;13.80;99.90;;;;;;5092483;28;20431;-69
2023/05/06 00:19:06;;;;;;;34.97;19.63;;;13.70;99.90;;;;;;5088224;28;20039;-69
2023/05/06 00:21:32;;;;;;;34.53;18.95;;;13.70;99.90;;;;;;5086247;28;20151;-69
2023/05/06 00:23:58;;;;;;;35.85;19.65;;;13.70;99.90;;;;;;5087330;28;20715;-69
2023/05/06 00:26:23;;;;;;;36.00;20.20;;;13.70;99.90;;;;;;5086867;28;20028;-69
2023/05/06 00:28:49;;;;;;;36.50;20.33;;;13.80;99.90;;;;;;5089313;28;20040;-69
2023/05/06 00:31:15;;;;;;;42.67;21.98;;;13.80;99.90;;;;;;5082785;28;20020;-68
2023/05/06 00:33:40;;;;;;;34.10;18.80;;;13.80;99.90;;;;;;5081991;28;20036;-69
2023/05/06 00:36:06;;;;;;;33.03;18.38;;;13.80;99.90;;;;;;5087393;28;20056;-68
2023/05/06 00:38:32;;;;;;;110.65;18.92;;;13.70;99.90;;;;;;5089776;28;20027;-68
2023/05/06 00:40:57;;;;;;;236.73;19.13;;;13.60;99.90;;;;;;5088482;28;20063;-69
2023/05/06 00:43:23;;;;;;;28.08;16.50;;;13.50;99.90;;;;;;5094615;28;20418;-69
2023/05/06 00:45:50;;;;;;;31.58;17.50;;;13.50;99.90;;;;;;5086633;28;20051;-68
2023/05/06 00:48:16;;;;;;;31.00;17.90;;;13.50;99.90;;;;;;5091685;28;20019;-67
2023/05/06 00:50:42;;;;;;;35.45;19.17;;;13.50;99.90;;;;;;5086846;28;20369;-68
2023/05/06 00:53:09;;;;;;;232.27;24.50;;;13.60;99.90;;;;;;5087567;28;20059;-68
2023/05/06 00:55:35;;;;;;;517.00;29.15;;;13.50;99.90;;;;;;5085563;28;20043;-68
2023/05/06 00:58:01;;;;;;;121.30;19.67;;;13.40;99.90;;;;;;5077357;28;20059;-68
2023/05/06 01:00:27;;;;;;;38.38;19.55;;;13.30;99.90;;;;;;5087736;28;20111;-68
2023/05/06 01:02:53;;;;;;;38.15;19.02;;;13.20;99.90;;;;;;5096687;28;20103;-68
2023/05/06 01:05:21;;;;;;;33.72;19.85;;;13.20;99.90;;;;;;5089622;28;20040;-68
2023/05/06 01:08:18;;;;;;;39.20;20.88;;;13.20;99.90;;;;;;5090501;28;20426;-68
2023/05/06 01:10:54;;;;;;;43.35;21.90;;;13.20;99.90;;;;;;5039568;28;20041;-67
2023/05/06 01:13:51;;;;;;;39.17;21.30;;;13.20;99.90;;;;;;5089903;28;20043;-68
2023/05/06 01:16:19;;;;;;;38.17;20.90;;;13.20;99.90;;;;;;5087312;28;20052;-68
2023/05/06 01:18:46;;;;;;;41.17;20.65;;;13.20;99.90;;;;;;5090410;28;20119;-68
2023/05/06 01:21:13;;;;;;;39.92;21.30;;;13.20;99.90;;;;;;5093806;28;20098;-68
2023/05/06 01:23:56;;;;;;;37.00;20.95;;;13.20;99.90;;;;;;5092677;28;20046;-68
2023/05/06 01:26:23;;;;;;;42.63;21.48;;;13.20;99.90;;;;;;5090394;28;20372;-68
2023/05/06 01:28:49;;;;;;;36.40;20.00;;;13.20;99.90;;;;;;5092589;28;20032;-68
2023/05/06 01:31:37;;;;;;;35.35;19.52;;;13.20;99.90;;;;;;5093920;28;20461;-68
2023/05/06 01:34:32;;;;;;;35.08;18.55;;;13.20;99.90;;;;;;5082568;28;20119;-68
2023/05/06 01:37:24;;;;;;;33.88;18.17;;;13.20;99.90;;;;;;5092802;28;20047;-68
2023/05/06 01:39:54;;;;;;;35.22;18.65;;;13.20;99.90;;;;;;5089335;28;20119;-67
2023/05/06 01:42:23;;;;;;;31.67;17.52;;;13.30;99.90;;;;;;5091445;28;20484;-68
2023/05/06 01:44:50;;;;;;;31.38;17.17;;;13.30;99.90;;;;;;5092122;28;20055;-68
2023/05/06 01:47:16;;;;;;;31.75;17.58;;;13.30;99.90;;;;;;5090000;28;20039;-68
2023/05/06 01:49:42;;;;;;;29.88;17.27;;;13.30;99.90;;;;;;5088786;28;20020;-69
2023/05/06 01:52:08;;;;;;;30.48;17.27;;;13.20;99.90;;;;;;5086878;28;20365;-68
2023/05/06 01:54:33;;;;;;;31.17;17.02;;;13.20;99.90;;;;;;5093259;28;20593;-68
2023/05/06 01:56:59;;;;;;;29.88;16.30;;;13.20;99.90;;;;;;5086719;28;20111;-67
2023/05/06 01:59:25;;;;;;;29.13;16.00;;;13.20;99.90;;;;;;5088205;28;20073;-68
2023/05/06 02:01:50;;;;;;;33.08;16.73;;;13.20;99.90;;;;;;5092097;28;20032;-68
2023/05/06 02:04:16;;;;;;;26.77;15.07;;;13.10;99.90;;;;;;5089613;28;20035;-68
2023/05/06 02:06:42;;;;;;;30.20;16.90;;;13.10;99.90;;;;;;5092297;28;20444;-67
2023/05/06 02:09:08;;;;;;;27.00;16.27;;;13.00;99.90;;;;;;5089724;28;20032;-67
2023/05/06 02:11:33;;;;;;;29.05;16.05;;;13.00;99.90;;;;;;5095341;28;20200;-68
2023/05/06 02:14:00;;;;;;;30.40;16.48;;;13.00;99.90;;;;;;5091567;28;20127;-68
2023/05/06 02:16:27;;;;;;;34.78;17.13;;;13.00;99.90;;;;;;5087119;28;20446;-68
2023/05/06 02:18:53;;;;;;;31.35;16.55;;;13.00;99.90;;;;;;5089568;28;20039;-68
2023/05/06 02:21:19;;;;;;;34.83;17.77;;;12.90;99.90;;;;;;5085871;28;20032;-68
2023/05/06 02:23:44;;;;;;;33.53;17.08;;;13.00;99.90;;;;;;5085220;28;20086;-68
2023/05/06 02:26:10;;;;;;;28.65;15.90;;;13.00;99.90;;;;;;5092555;28;20118;-68
2023/05/06 02:28:36;;;;;;;30.90;16.55;;;13.00;99.90;;;;;;5095229;28;20087;-68
2023/05/06 02:31:01;;;;;;;28.50;16.23;;;13.00;99.90;;;;;;5092888;28;20038;-68
2023/05/06 02:33:27;;;;;;;33.92;16.95;;;13.00;99.90;;;;;;5090797;28;20032;-69
2023/05/06 02:35:52;;;;;;;30.65;16.50;;;13.00;99.90;;;;;;5088809;28;20456;-69
2023/05/06 02:38:18;;;;;;;31.55;16.15;;;13.00;99.90;;;;;;5088521;28;20027;-69
2023/05/06 02:40:44;;;;;;;30.58;16.67;;;13.00;99.90;;;;;;5085181;28;20032;-67
2023/05/06 02:43:10;;;;;;;35.28;17.27;;;13.00;99.90;;;;;;5095850;28;20035;-68
2023/05/06 02:45:35;;;;;;;31.35;16.40;;;12.90;99.90;;;;;;5091972;28;20698;-68
2023/05/06 02:48:01;;;;;;;24.52;15.43;;;12.90;99.90;;;;;;5090981;28;20380;-68
2023/05/06 02:50:27;;;;;;;25.27;15.68;;;12.80;99.90;;;;;;5088409;28;20115;-67
2023/05/06 02:52:52;;;;;;;29.23;16.17;;;12.80;99.90;;;;;;5091466;28;20036;-68
2023/05/06 02:55:18;;;;;;;30.77;16.08;;;12.80;99.90;;;;;;5092231;28;20098;-67
2023/05/06 02:57:43;;;;;;;29.10;15.27;;;12.80;99.90;;;;;;5088544;28;20039;-68
2023/05/06 03:00:10;;;;;;;29.33;16.08;;;12.70;99.90;;;;;;5091518;28;20031;-67
2023/05/06 03:02:35;;;;;;;28.48;15.20;;;12.80;99.90;;;;;;5094774;28;20024;-67
2023/05/06 03:05:03;;;;;;;25.63;15.40;;;12.70;99.90;;;;;;5090081;28;20028;-68
2023/05/06 03:07:29;;;;;;;29.10;15.40;;;12.70;99.90;;;;;;5088651;28;20040;-68
2023/05/06 03:09:55;;;;;;;29.63;16.80;;;12.70;99.90;;;;;;5088579;28;20036;-69
2023/05/06 03:12:21;;;;;;;28.92;16.77;;;12.70;99.90;;;;;;5086040;28;20024;-67
2023/05/06 03:14:46;;;;;;;546.70;29.75;;;12.70;99.90;;;;;;5091748;28;20135;-68
2023/05/06 03:17:12;;;;;;;23.25;14.02;;;12.70;99.90;;;;;;5087511;28;20692;-68
2023/05/06 03:19:38;;;;;;;26.95;15.65;;;12.50;99.90;;;;;;5087632;28;20564;-68
2023/05/06 03:22:03;;;;;;;32.28;17.13;;;12.50;99.90;;;;;;5080501;28;20103;-68
2023/05/06 03:24:29;;;;;;;32.47;17.55;;;12.40;99.90;;;;;;5086788;28;20046;-68
2023/05/06 03:26:57;;;;;;;29.88;16.00;;;12.40;99.90;;;;;;5089787;28;20028;-69
2023/05/06 03:29:23;;;;;;;27.77;15.68;;;12.30;99.90;;;;;;5086112;28;20051;-69
2023/05/06 03:31:49;;;;;;;27.45;16.08;;;12.30;99.90;;;;;;5078507;28;20071;-68
2023/05/06 03:34:15;;;;;;;28.95;15.60;;;12.30;99.90;;;;;;5088171;28;20032;-68
2023/05/06 03:36:41;;;;;;;28.58;16.33;;;12.20;99.90;;;;;;5094149;28;20105;-68
2023/05/06 03:39:06;;;;;;;30.48;16.38;;;12.20;99.90;;;;;;5088243;28;20056;-68
2023/05/06 03:41:32;;;;;;;25.40;14.77;;;12.20;99.90;;;;;;5084649;28;20465;-68
2023/05/06 03:43:58;;;;;;;28.67;15.82;;;12.20;99.90;;;;;;5094069;28;20031;-68
2023/05/06 03:46:23;;;;;;;29.90;15.60;;;12.20;99.90;;;;;;5086538;28;20035;-67
2023/05/06 03:48:49;;;;;;;28.65;15.90;;;12.20;99.90;;;;;;5088466;28;20040;-68
2023/05/06 03:51:15;;;;;;;28.90;15.50;;;12.20;99.90;;;;;;5094818;28;20035;-68
2023/05/06 03:53:40;;;;;;;31.02;16.45;;;12.20;99.90;;;;;;5091343;28;20063;-67
2023/05/06 03:56:06;;;;;;;31.27;17.08;;;12.20;99.90;;;;;;5093018;28;20028;-68
2023/05/06 03:58:32;;;;;;;31.63;17.80;;;12.30;99.90;;;;;;5086606;28;20088;-68
2023/05/06 04:00:59;;;;;;;31.38;16.50;;;12.30;99.90;;;;;;5087490;28;20028;-68
2023/05/06 04:03:25;;;;;;;80.45;17.30;;;12.30;99.90;;;;;;5087125;28;20045;-68
2023/05/06 04:05:51;;;;;;;30.30;16.50;;;12.30;99.90;;;;;;5087718;28;20028;-68
2023/05/06 04:08:16;;;;;;;43.83;19.20;;;12.30;99.90;;;;;;5085453;28;20031;-67
2023/05/06 04:10:42;;;;;;;35.92;18.92;;;12.40;99.90;;;;;;5085083;28;20020;-67
2023/05/06 04:13:08;;;;;;;73.50;19.50;;;12.40;99.90;;;;;;5097943;28;20053;-68
2023/05/06 04:15:37;;;;;;;73.40;18.15;;;12.30;99.90;;;;;;5086646;28;20035;-68
2023/05/06 04:18:04;;;;;;;266.85;21.45;;;12.30;99.90;;;;;;5093623;28;20547;-68
2023/05/06 04:20:30;;;;;;;535.78;25.08;;;12.30;99.90;;;;;;5086957;28;20163;-68
2023/05/06 04:22:55;;;;;;;410.15;23.52;;;12.30;99.90;;;;;;5093254;28;20032;-68
2023/05/06 04:25:21;;;;;;;324.65;20.67;;;12.20;99.90;;;;;;5085290;28;20012;-67
2023/05/06 04:27:47;;;;;;;211.57;17.73;;;12.20;99.90;;;;;;5093086;28;20414;-67
2023/05/06 04:30:13;;;;;;;351.33;23.40;;;12.20;99.90;;;;;;5089525;28;20032;-69
2023/05/06 04:32:39;;;;;;;188.93;19.25;;;12.20;99.90;;;;;;5085276;28;20537;-69
2023/05/06 04:35:05;;;;;;;153.52;17.55;;;12.20;99.90;;;;;;5088514;28;20032;-69
2023/05/06 04:37:31;;;;;;;231.48;20.02;;;12.20;99.90;;;;;;5092904;28;20035;-69
2023/05/06 04:39:57;;;;;;;352.88;21.80;;;12.20;99.90;;;;;;5092826;28;20455;-68
2023/05/06 04:42:23;;;;;;;273.85;21.33;;;12.20;99.90;;;;;;5092432;28;20093;-68
2023/05/06 04:44:48;;;;;;;358.40;21.30;;;12.20;99.90;;;;;;5094295;28;20469;-68
2023/05/06 04:47:15;;;;;;;134.35;18.48;;;12.30;99.90;;;;;;5104062;27;20028;-68
2023/05/06 04:49:40;;;;;;;111.55;17.88;;;12.40;99.90;;;;;;5074955;28;20043;-68
2023/05/06 04:52:06;;;;;;;206.68;18.55;;;12.40;99.90;;;;;;5103288;28;20456;-69
2023/05/06 04:54:32;;;;;;;397.63;21.98;;;12.40;99.90;;;;;;5090639;28;20045;-68
2023/05/06 04:56:57;;;;;;;46.65;17.30;;;12.40;99.90;;;;;;5104982;28;20520;-68
2023/05/06 04:59:23;;;;;;;298.13;19.80;;;12.40;99.90;;;;;;5103961;28;20028;-68
2023/05/06 05:01:49;;;;;;;247.02;19.38;;;12.40;99.90;;;;;;5099742;28;20598;-68
2023/05/06 05:04:14;;;;;;;371.27;20.25;;;12.30;99.90;;;;;;5111272;28;20179;-69
2023/05/06 05:06:40;;;;;;;356.45;21.05;;;12.30;99.90;;;;;;5108913;28;20061;-68
2023/05/06 05:09:06;;;;;;;179.52;17.90;;;12.20;99.90;;;;;;5104041;28;20034;-69
2023/05/06 05:11:31;;;;;;;300.02;20.65;;;12.30;99.90;;;;;;5096400;28;20107;-69
2023/05/06 05:13:57;;;;;;;229.80;18.88;;;12.20;99.90;;;;;;5102583;28;20729;-69
2023/05/06 05:16:23;;;;;;;217.57;19.25;;;12.20;99.90;;;;;;5106468;28;20027;-69
2023/05/06 05:18:48;;;;;;;234.57;20.75;;;12.20;99.90;;;;;;5098986;28;20042;-69
2023/05/06 05:21:14;;;;;;;177.63;18.00;;;12.30;99.90;;;;;;5103416;28;20447;-69
2023/05/06 05:23:40;;;;;;;199.20;18.58;;;12.30;99.90;;;;;;5091209;28;20040;-68
2023/05/06 05:26:06;;;;;;;193.27;17.20;;;12.40;99.90;;;;;;5085583;28;20034;-68
2023/05/06 05:28:31;;;;;;;279.75;18.83;;;12.40;99.90;;;;;;5068590;28;20031;-68
2023/05/06 05:31:02;;;;;;;206.70;18.63;;;12.50;99.90;;;;;;5099362;28;20023;-69
2023/05/06 05:33:28;;;;;;;152.55;18.67;;;12.40;99.90;;;;;;5102970;28;20404;-68
2023/05/06 05:35:53;;;;;;;107.45;18.10;;;12.40;99.90;;;;;;5103775;28;20031;-69
2023/05/06 05:38:19;;;;;;;770.92;37.25;;;12.40;99.90;;;;;;5095531;28;20036;-69
2023/05/06 05:40:45;;;;;;;62.03;19.48;;;12.40;99.90;;;;;;5102823;28;20055;-68
2023/05/06 05:43:10;;;;;;;54.60;18.77;;;12.40;99.90;;;;;;5101097;28;20027;-69
2023/05/06 05:45:36;;;;;;;52.65;19.73;;;12.50;99.90;;;;;;5094045;28;20024;-68
2023/05/06 05:48:02;;;;;;;42.28;18.85;;;12.50;99.90;;;;;;5098684;28;20027;-68
2023/05/06 05:50:28;;;;;;;39.40;19.00;;;12.50;99.90;;;;;;5095651;28;20033;-68
2023/05/06 05:52:54;;;;;;;41.25;18.25;;;12.50;99.90;;;;;;5103771;28;20047;-68
2023/05/06 05:55:20;;;;;;;35.88;19.17;;;12.60;99.90;;;;;;5105825;28;20051;-68
2023/05/06 05:57:46;;;;;;;35.20;17.90;;;12.80;99.90;;;;;;5097071;28;20036;-68
2023/05/06 06:00:12;;;;;;;37.22;17.13;;;13.00;99.90;;;;;;5086802;28;20035;-68
2023/05/06 06:02:37;;;;;;;34.47;16.58;;;13.20;99.90;;;;;;5095283;28;20722;-69
2023/05/06 06:05:04;;;;;;;29.02;14.93;;;13.40;99.90;;;;;;5097120;28;20043;-68
2023/05/06 06:07:29;;;;;;;30.80;15.85;;;13.50;99.90;;;;;;5093385;28;20032;-69
2023/05/06 06:09:55;;;;;;;29.35;15.80;;;13.70;99.90;;;;;;5088043;28;20149;-70
2023/05/06 06:12:22;;;;;;;29.98;15.00;;;13.90;99.90;;;;;;5088752;28;20235;-68
2023/05/06 06:14:47;;;;;;;28.17;14.48;;;14.00;99.90;;;;;;5091984;28;20032;-68
2023/05/06 06:17:14;;;;;;;31.05;15.25;;;14.10;99.90;;;;;;5091790;28;20105;-69
2023/05/06 06:19:40;;;;;;;28.40;15.23;;;14.30;99.90;;;;;;5089015;28;20108;-69
2023/05/06 06:22:05;;;;;;;25.95;14.55;;;14.50;99.90;;;;;;5087018;28;20053;-68
2023/05/06 06:24:33;;;;;;;24.90;14.40;;;14.70;99.90;;;;;;5088629;28;20036;-68
2023/05/06 06:27:00;;;;;;;24.50;13.18;;;14.60;99.90;;;;;;5080625;28;20392;-68
2023/05/06 06:29:26;;;;;;;22.10;12.07;;;14.60;99.90;;;;;;5080080;28;20020;-69
2023/05/06 06:31:51;;;;;;;21.20;10.75;;;14.50;99.90;;;;;;5090936;28;20490;-68
2023/05/06 06:34:17;;;;;;;18.38;10.25;;;14.30;99.90;;;;;;5105045;28;20042;-68
2023/05/06 06:36:44;;;;;;;18.67;10.52;;;14.10;99.90;;;;;;5098364;28;20425;-68
2023/05/06 06:39:11;;;;;;;15.35;8.52;;;14.20;99.90;;;;;;5088257;28;20027;-70
2023/05/06 06:41:37;;;;;;;15.98;9.45;;;14.10;99.90;;;;;;5091385;28;20031;-69
2023/05/06 06:44:03;;;;;;;20.65;10.88;;;13.90;99.90;;;;;;5089208;28;20042;-69
2023/05/06 06:46:28;;;;;;;19.38;10.13;;;14.00;99.90;;;;;;5089015;28;20097;-70
2023/05/06 06:48:54;;;;;;;19.83;10.77;;;14.10;99.90;;;;;;5094705;28;20039;-69
2023/05/06 06:51:19;;;;;;;18.20;9.68;;;14.20;99.90;;;;;;5090742;28;20067;-69
2023/05/06 06:53:47;;;;;;;15.77;8.38;;;14.30;99.90;;;;;;5092948;28;20044;-68
2023/05/06 06:56:14;;;;;;;19.08;9.05;;;14.40;99.90;;;;;;5094867;28;20056;-68
2023/05/06 06:58:40;;;;;;;15.07;8.60;;;14.50;99.90;;;;;;5084830;28;20585;-70
2023/05/06 07:01:06;;;;;;;17.50;8.60;;;14.70;99.90;;;;;;5088488;28;20063;-69
2023/05/06 07:03:32;;;;;;;14.48;8.13;;;14.80;99.90;;;;;;5085813;28;20039;-70
2023/05/06 07:05:57;;;;;;;11.68;6.20;;;15.10;99.90;;;;;;5088602;28;20024;-71
2023/05/06 07:08:23;;;;;;;13.02;6.38;;;15.10;99.90;;;;;;5076588;28;20028;-71
2023/05/06 07:10:48;;;;;;;9.85;5.88;;;14.90;99.90;;;;;;5091618;28;20032;-71
2023/05/06 07:13:14;;;;;;;9.85;6.13;;;14.70;99.90;;;;;;5091360;28;20031;-70
2023/05/06 07:15:40;;;;;;;10.43;6.07;;;14.80;99.90;;;;;;5088792;28;20135;-70
2023/05/06 07:18:06;;;;;;;11.85;5.60;;;14.90;99.90;;;;;;5084990;28;20035;-71
2023/05/06 07:20:31;;;;;;;10.02;5.45;;;15.00;99.90;;;;;;5085633;28;20469;-71
2023/05/06 07:22:57;;;;;;;9.45;6.03;;;15.10;99.90;;;;;;5090763;28;20039;-70
2023/05/06 07:25:23;;;;;;;11.13;6.32;;;15.10;99.90;;;;;;5085161;28;20233;-71
2023/05/06 07:27:49;;;;;;;10.13;6.38;;;15.10;99.90;;;;;;5087229;28;20043;-69
2023/05/06 07:30:15;;;;;;;11.73;6.30;;;15.20;99.90;;;;;;5087872;28;20412;-71
2023/05/06 07:32:42;;;;;;;12.27;6.53;;;15.10;99.90;;;;;;5086963;28;20043;-70
2023/05/06 07:35:08;;;;;;;13.63;6.80;;;15.00;99.90;;;;;;5088290;28;20036;-71
2023/05/06 07:37:34;;;;;;;11.18;6.40;;;14.90;99.90;;;;;;5087705;28;20047;-69
2023/05/06 07:39:59;;;;;;;10.88;5.72;;;14.80;99.90;;;;;;5087633;28;20109;-70
2023/05/06 07:42:25;;;;;;;10.52;6.28;;;14.60;99.90;;;;;;5087739;28;20024;-70
2023/05/06 07:44:50;;;;;;;11.35;6.57;;;14.60;99.90;;;;;;5092931;28;20483;-70
2023/05/06 07:47:26;;;;;;;13.10;6.85;;;14.60;99.90;;;;;;5088028;28;20475;-71
2023/05/06 07:49:52;;;;;;;12.98;6.88;;;14.70;99.90;;;;;;5080217;28;20027;-72
2023/05/06 07:52:18;;;;;;;10.82;6.30;;;14.90;99.90;;;;;;5087936;28;20016;-70
2023/05/06 07:54:44;;;;;;;8.80;5.45;;;15.20;99.90;;;;;;5086717;28;20493;-69
2023/05/06 07:57:09;;;;;;;10.43;6.03;;;15.50;99.90;;;;;;5088184;28;20462;-70
2023/05/06 07:59:35;;;;;;;11.10;5.20;;;15.70;99.90;;;;;;5087448;28;20059;-69
2023/05/06 08:02:01;;;;;;;8.50;5.28;;;15.90;99.90;;;;;;5087600;28;20028;-71
2023/05/06 08:04:26;;;;;;;11.18;5.38;;;16.10;99.90;;;;;;5088025;28;20119;-70
2023/05/06 08:06:52;;;;;;;7.93;4.55;;;16.50;99.90;;;;;;5087204;28;20119;-72
2023/05/06 08:09:18;;;;;;;7.60;4.25;;;16.30;99.90;;;;;;5088093;28;20597;-70
2023/05/06 08:11:44;;;;;;;8.15;3.72;;;16.00;99.90;;;;;;5091555;28;20047;-71
2023/05/06 08:14:09;;;;;;;7.38;4.25;;;15.80;99.90;;;;;;5099727;28;20113;-70
2023/05/06 08:16:35;;;;;;;5.18;3.50;;;15.80;99.90;;;;;;5091598;28;20464;-69
2023/05/06 08:19:01;;;;;;;9.73;3.35;;;15.90;99.90;;;;;;5091614;28;20047;-69
2023/05/06 08:21:26;;;;;;;6.00;3.40;;;16.00;99.90;;;;;;5092143;28;20019;-70
2023/05/06 08:23:52;;;;;;;3.78;2.60;;;16.00;99.90;;;;;;5090850;28;20569;-70
2023/05/06 08:26:18;;;;;;;7.47;3.17;;;16.00;99.90;;;;;;5092064;28;20024;-71
2023/05/06 08:28:43;;;;;;;5.00;3.30;;;15.90;99.90;;;;;;5090874;28;20032;-70
2023/05/06 08:31:09;;;;;;;8.93;3.55;;;16.00;99.90;;;;;;5092068;28;20493;-71
2023/05/06 08:33:35;;;;;;;8.02;3.63;;;16.00;99.90;;;;;;5091715;28;20083;-69
2023/05/06 08:36:00;;;;;;;10.32;3.42;;;16.00;99.90;;;;;;5091087;28;20034;-71
2023/05/06 08:38:26;;;;;;;11.02;3.75;;;16.00;99.90;;;;;;5091682;28;20024;-71
2023/05/06 08:40:53;;;;;;;6.55;3.60;;;16.20;99.90;;;;;;5090698;28;20028;-71
2023/05/06 08:43:20;;;;;;;5.00;3.15;;;16.30;99.90;;;;;;5091934;28;20048;-71
2023/05/06 08:45:46;;;;;;;6.40;2.97;;;16.40;99.90;;;;;;5090261;28;20498;-71
2023/05/06 08:48:12;;;;;;;6.80;3.42;;;16.50;99.90;;;;;;5091750;28;20028;-70
2023/05/06 08:50:41;;;;;;;6.68;3.08;;;16.60;99.90;;;;;;5091293;28;20414;-70
2023/05/06 08:53:13;;;;;;;8.93;3.13;;;16.40;99.90;;;;;;5089386;28;20048;-69
2023/05/06 08:55:42;;;;;;;6.78;3.65;;;16.80;99.90;;;;;;5093261;28;20036;-69
2023/05/06 08:58:12;;;;;;;7.22;3.42;;;17.00;99.90;;;;;;5090499;28;20043;-70
2023/05/06 09:00:38;;;;;;;7.27;3.63;;;17.20;99.90;;;;;;5092765;28;20035;-70
2023/05/06 09:03:04;;;;;;;5.53;3.08;;;17.10;99.90;;;;;;5091446;28;20032;-73
2023/05/06 09:05:30;;;;;;;7.25;3.65;;;17.00;99.90;;;;;;5088305;28;20024;-72
2023/05/06 09:07:56;;;;;;;5.82;3.15;;;17.00;99.90;;;;;;5093005;28;20036;-70
2023/05/06 09:10:21;;;;;;;3.13;2.30;;;16.90;99.90;;;;;;5091019;28;20069;-69
2023/05/06 09:12:47;;;;;;;6.75;3.45;;;16.80;99.90;;;;;;5091451;28;20024;-71
2023/05/06 09:15:12;;;;;;;9.85;2.75;;;16.90;99.90;;;;;;5090843;28;20086;-70
2023/05/06 09:17:38;;;;;;;7.88;2.70;;;16.90;99.90;;;;;;5090919;28;20031;-70
2023/05/06 09:20:07;;;;;;;3.72;2.20;;;17.00;99.90;;;;;;5080911;28;20506;-73
2023/05/06 09:22:33;;;;;;;7.13;2.75;;;17.30;99.90;;;;;;5096560;28;20028;-70
2023/05/06 09:24:59;;;;;;;7.00;2.83;;;17.40;99.90;;;;;;5089913;28;20042;-71
2023/05/06 09:27:27;;;;;;;5.43;3.05;;;17.40;99.90;;;;;;5090762;28;20024;-70
2023/05/06 09:30:19;;;;;;;4.63;3.17;;;17.60;99.90;;;;;;5089310;28;20038;-69
2023/05/06 09:32:48;;;;;;;5.65;3.45;;;17.90;99.90;;;;;;5086826;28;20066;-70
2023/05/06 09:35:14;;;;;;;7.22;2.92;;;17.80;99.90;;;;;;5082198;28;20032;-72
2023/05/06 09:37:40;;;;;;;4.00;2.70;;;17.80;99.90;;;;;;5087721;28;20065;-70
2023/05/06 09:40:07;;;;;;;3.70;2.60;;;17.80;99.90;;;;;;5081363;28;20081;-70
2023/05/06 09:42:33;;;;;;;4.53;2.35;;;17.50;99.90;;;;;;5075597;28;20742;-70
2023/05/06 09:45:00;;;;;;;4.57;2.50;;;17.30;99.90;;;;;;5085864;28;20050;-70
2023/05/06 09:47:31;;;;;;;5.13;2.30;;;17.00;99.90;;;;;;5085494;28;20051;-72
2023/05/06 09:49:58;;;;;;;8.18;2.90;;;17.30;99.90;;;;;;5087779;28;20047;-71
2023/05/06 09:52:26;;;;;;;2.95;2.00;;;17.70;99.90;;;;;;5090134;28;20035;-70
2023/05/06 09:54:53;;;;;;;3.40;2.22;;;18.10;99.90;;;;;;5088922;28;20052;-72
2023/05/06 09:57:21;;;;;;;9.35;4.90;;;18.20;99.90;;;;;;5091026;28;20028;-70
2023/05/06 09:59:47;;;;;;;8.13;4.18;;;17.90;99.90;;;;;;5064882;28;20028;-71
2023/05/06 10:02:13;;;;;;;5.43;3.88;;;17.90;99.90;;;;;;5084801;28;20060;-70
2023/05/06 10:04:44;;;;;;;7.60;3.47;;;17.90;99.90;;;;;;5095065;28;20071;-70
2023/05/06 10:07:11;;;;;;;6.05;3.20;;;18.20;99.90;;;;;;5090576;28;20032;-71
2023/05/06 10:09:39;;;;;;;5.43;3.17;;;18.40;99.90;;;;;;5092773;28;20467;-72
2023/05/06 10:12:08;;;;;;;5.32;2.97;;;18.30;99.90;;;;;;5091598;28;20082;-72
2023/05/06 10:14:37;;;;;;;5.30;3.05;;;18.10;99.90;;;;;;5095841;28;20109;-71
2023/05/06 10:17:08;;;;;;;6.40;2.72;;;18.10;99.90;;;;;;5085391;28;20039;-72
2023/05/06 10:19:35;;;;;;;5.72;3.13;;;18.40;99.90;;;;;;5089839;28;20020;-72
2023/05/06 10:22:12;;;;;;;9.90;3.42;;;18.10;99.90;;;;;;5094389;28;20059;-72
2023/05/06 10:24:50;;;;;;;5.95;3.47;;;17.80;99.90;;;;;;5087164;28;20050;-71
2023/05/06 10:27:22;;;;;;;6.85;3.15;;;17.60;99.90;;;;;;5087904;28;20023;-71
2023/05/06 10:29:48;;;;;;;4.95;3.28;;;17.60;99.90;;;;;;5093271;28;20039;-71
2023/05/06 10:32:14;;;;;;;4.95;2.88;;;17.60;99.90;;;;;;5095771;28;20027;-71
2023/05/06 10:34:51;;;;;;;7.72;3.47;;;17.80;99.90;;;;;;5090087;28;20043;-72
2023/05/06 10:37:18;;;;;;;6.00;3.45;;;18.00;99.90;;;;;;5093384;28;20133;-70
2023/05/06 10:39:45;;;;;;;5.50;3.53;;;18.40;99.90;;;;;;5088221;28;20028;-69
2023/05/06 10:42:10;;;;;;;8.00;4.10;;;18.60;99.90;;;;;;5089651;28;20528;-72
2023/05/06 10:44:55;;;;;;;12.27;4.55;;;18.50;99.90;;;;;;5093638;28;20082;-70
2023/05/06 10:47:21;;;;;;;8.82;3.90;;;18.80;99.90;;;;;;5095610;28;20096;-71
2023/05/06 10:50:24;;;;;;;5.70;3.58;;;18.80;99.90;;;;;;5091804;28;20451;-70
2023/05/06 10:52:54;;;;;;;5.03;3.50;;;18.40;99.90;;;;;;5080539;28;20059;-73
2023/05/06 10:55:31;;;;;;;6.05;3.25;;;18.40;99.90;;;;;;5090907;28;20031;-71
2023/05/06 10:58:26;;;;;;;4.70;3.45;;;18.40;99.90;;;;;;5089217;28;20499;-72
2023/05/06 11:00:56;;;;;;;5.75;3.33;;;18.80;99.90;;;;;;5070179;28;20047;-71
2023/05/06 11:03:23;;;;;;;6.35;2.80;;;19.30;99.90;;;;;;5089966;28;20042;-70
2023/05/06 11:05:50;;;;;;;7.32;2.85;;;19.70;99.90;;;;;;5087155;28;20032;-72
2023/05/06 11:08:24;;;;;;;8.32;3.10;;;19.80;99.90;;;;;;5087920;28;20031;-71
2023/05/06 11:10:50;;;;;;;3.90;2.60;;;19.80;99.90;;;;;;5089902;28;20024;-73
2023/05/06 11:13:20;;;;;;;8.57;3.20;;;20.10;99.90;;;;;;5094570;28;20348;-72
2023/05/06 11:15:46;;;;;;;5.75;3.28;;;20.50;99.90;;;;;;5089876;28;20027;-72
2023/05/06 11:18:24;;;;;;;7.70;3.75;;;20.50;99.90;;;;;;5087155;28;20468;-71
2023/05/06 11:21:01;;;;;;;7.18;3.40;;;20.00;99.90;;;;;;5090133;28;20039;-72
2023/05/06 11:23:48;;;;;;;7.07;2.90;;;19.80;99.90;;;;;;5095322;28;20033;-71
2023/05/06 11:26:15;;;;;;;7.88;3.30;;;19.80;99.90;;;;;;5077223;28;20039;-73
2023/05/06 11:28:48;;;;;;;6.63;2.90;;;19.90;99.90;;;;;;5086587;28;20031;-72
2023/05/06 11:31:15;;;;;;;4.82;2.35;;;19.90;99.90;;;;;;5089489;28;20753;-72
2023/05/06 11:33:51;;;;;;;3.95;2.88;;;19.80;99.90;;;;;;5091491;28;20043;-72
2023/05/06 11:36:19;;;;;;;4.53;2.42;;;19.80;99.90;;;;;;5085061;28;20477;-71
2023/05/06 11:38:50;;;;;;;3.90;2.60;;;19.90;99.90;;;;;;5087673;28;20020;-71
2023/05/06 11:41:17;;;;;;;3.53;2.55;;;20.10;99.90;;;;;;5087884;28;20381;-72
2023/05/06 11:43:48;;;;;;;5.13;2.58;;;20.30;99.90;;;;;;5099600;28;20032;-70
2023/05/06 11:46:14;;;;;;;3.88;2.60;;;20.40;99.90;;;;;;5090666;28;20027;-71
2023/05/06 11:48:42;;;;;;;4.28;3.15;;;20.30;99.90;;;;;;5087807;28;20511;-72
2023/05/06 11:51:07;;;;;;;9.05;3.03;;;20.40;99.90;;;;;;5084457;28;20525;-71
2023/05/06 11:53:33;;;;;;;10.52;3.75;;;20.70;99.90;;;;;;5089650;28;20190;-72
2023/05/06 11:56:00;;;;;;;4.47;2.80;;;20.70;99.90;;;;;;5087020;28;20074;-71
2023/05/06 11:58:27;;;;;;;3.88;2.58;;;20.90;99.90;;;;;;5085359;28;20040;-71
2023/05/06 12:00:58;;;;;;;4.68;2.70;;;21.10;99.90;;;;;;5089951;28;20035;-73
2023/05/06 12:03:26;;;;;;;4.80;2.40;;;21.10;99.90;;;;;;5091145;28;20101;-71
2023/05/06 12:05:52;;;;;;;10.13;2.67;;;21.20;99.90;;;;;;5086138;28;20028;-73
2023/05/06 12:08:25;;;;;;;4.97;2.90;;;21.70;99.90;;;;;;5087800;28;20028;-70
2023/05/06 12:10:52;;;;;;;4.35;2.35;;;21.70;99.90;;;;;;5087378;28;20176;-73
2023/05/06 12:13:19;;;;;;;8.95;2.60;;;22.20;99.90;;;;;;5090952;28;20032;-71
2023/05/06 12:15:49;;;;;;;4.20;2.33;;;22.80;99.90;;;;;;5090804;28;20070;-72
2023/05/06 12:18:15;;;;;;;5.80;2.50;;;22.70;99.90;;;;;;5071112;28;20040;-71
2023/05/06 12:20:41;;;;;;;2.70;2.20;;;22.40;99.90;;;;;;5084848;28;20046;-71
2023/05/06 12:23:12;;;;;;;4.80;2.70;;;21.90;99.90;;;;;;5087637;28;20106;-71
2023/05/06 12:25:38;;;;;;;6.65;2.30;;;21.50;99.90;;;;;;5087626;28;20369;-71
2023/05/06 12:28:15;;;;;;;3.30;2.30;;;21.40;99.90;;;;;;5086997;28;20103;-71
2023/05/06 12:30:40;;;;;;;2.75;2.28;;;21.10;99.90;;;;;;5087412;28;20077;-70
2023/05/06 12:33:07;;;;;;;5.00;2.33;;;20.70;99.90;;;;;;5068580;28;20474;-71
2023/05/06 12:35:33;;;;;;;3.03;2.15;;;20.50;99.90;;;;;;5084608;28;20059;-70